Time;durP1;ratioP1;P1;durP2;ratioP2;P2;SDS_P1;SDS_P2;PMS_P1;PMS_P2;Temp;Humidity;BMP_temperature;BMP_pressure;BME280_temperature;BME280_humidity;BME280_pressure;Samples;Min_cycle;Max_cycle;Signal;HPM_P1;HPM_P2
2023/04/19 00:00:20;;;;;;;8.10;2.30;;;4.90;99.90;;;3.23;91.99;102702.16;4981640;28;20124;-77
2023/04/19 00:02:48;;;;;;;11.25;2.85;;;4.80;99.90;;;3.22;92.05;102694.34;4986031;28;20029;-78
2023/04/19 00:05:14;;;;;;;8.77;2.47;;;4.90;99.90;;;3.29;91.61;102693.56;5008536;28;20121;-78
2023/04/19 00:07:45;;;;;;;9.32;2.58;;;4.90;99.90;;;3.35;91.00;102695.38;4993357;28;20066;-77
2023/04/19 00:10:11;;;;;;;8.43;2.40;;;4.90;99.90;;;3.37;90.84;102691.06;5019343;28;20057;-77
2023/04/19 00:12:37;;;;;;;10.15;3.13;;;5.00;99.90;;;3.38;90.48;102691.09;5026389;28;20052;-78
2023/04/19 00:15:04;;;;;;;7.78;2.40;;;5.00;99.90;;;3.44;89.74;102685.97;4999627;28;23111;-78
2023/04/19 00:17:30;;;;;;;7.30;2.15;;;5.10;99.90;;;3.51;89.45;102683.47;4989345;28;20436;-78
2023/04/19 00:20:05;;;;;;;7.55;2.30;;;5.00;99.90;;;3.54;89.12;102678.28;4994066;28;20120;-77
2023/04/19 00:22:31;;;;;;;11.27;2.03;;;5.10;99.90;;;3.53;88.95;102681.75;4982718;28;20037;-77
2023/04/19 00:24:57;;;;;;;9.38;1.75;;;5.10;99.90;;;3.55;88.47;102674.84;5020388;28;20103;-77
2023/04/19 00:27:30;;;;;;;4.95;1.90;;;5.20;99.90;;;3.61;88.25;102674.94;4994604;28;20038;-77
2023/04/19 00:29:56;;;;;;;5.55;1.55;;;5.20;99.90;;;3.66;87.79;102671.50;5006546;28;20034;-77
2023/04/19 00:32:23;;;;;;;5.57;1.90;;;5.30;99.90;;;3.68;87.76;102671.53;5008590;28;20032;-77
2023/04/19 00:34:48;;;;;;;4.13;1.77;;;5.30;99.90;;;3.73;86.85;102667.25;5011737;28;20046;-77
2023/04/19 00:37:22;;;;;;;3.45;1.30;;;5.30;99.90;;;3.73;86.74;102667.25;5017297;28;20049;-77
2023/04/19 00:39:48;;;;;;;3.60;1.65;;;5.30;99.90;;;3.76;86.66;102675.13;5000311;28;20041;-77
2023/04/19 00:42:14;;;;;;;3.35;1.55;;;;;;;3.76;86.83;102667.31;5007366;28;20041;-77
2023/04/19 00:44:40;;;;;;;7.00;2.00;;;5.40;99.90;;;3.80;86.61;102669.09;5002382;28;20049;-77
2023/04/19 00:47:06;;;;;;;6.13;1.60;;;5.40;99.90;;;3.82;86.52;102663.88;4983295;28;20037;-78
2023/04/19 00:49:40;;;;;;;6.22;1.75;;;5.40;99.90;;;3.76;86.40;102659.50;4958715;28;20071;-77
2023/04/19 00:52:07;;;;;;;9.63;2.30;;;5.40;99.90;;;3.79;86.70;102661.25;5013043;28;20061;-77
2023/04/19 00:54:34;;;;;;;4.40;1.70;;;5.40;99.90;;;3.82;86.51;102661.28;5036662;28;20041;-77
2023/04/19 00:57:00;;;;;;;7.53;2.90;;;5.40;99.90;;;3.86;86.43;102657.84;5035579;22;20040;-77
2023/04/19 00:59:26;;;;;;;7.53;2.63;;;5.70;99.90;;;3.88;86.93;102664.84;5041377;28;20120;-76
2023/04/19 01:01:52;;;;;;;5.00;1.65;;;5.40;99.90;;;3.84;87.62;102665.66;5019421;28;20522;-77
2023/04/19 01:04:18;;;;;;;8.10;1.70;;;5.50;99.90;;;3.84;87.97;102652.63;5025306;28;20382;-77
2023/04/19 01:06:43;;;;;;;6.97;1.95;;;5.40;99.90;;;3.87;88.33;102649.19;5010391;28;20045;-76
2023/04/19 01:09:09;;;;;;;3.95;1.55;;;5.40;99.90;;;3.87;88.59;102657.03;4982150;28;20032;-75
2023/04/19 01:11:35;;;;;;;5.85;1.70;;;5.50;99.90;;;3.89;88.72;102652.69;4960071;28;20041;-77
2023/04/19 01:14:01;;;;;;;10.23;2.00;;;5.40;99.90;;;3.84;88.54;102650.00;4993726;28;20156;-77
2023/04/19 01:16:27;;;;;;;3.92;1.30;;;5.40;99.90;;;3.81;89.09;102641.31;4992925;28;20544;-76
2023/04/19 01:18:53;;;;;;;6.80;1.52;;;5.40;99.90;;;3.75;89.33;102638.63;4995832;28;20057;-76
2023/04/19 01:21:22;;;;;;;6.57;1.90;;;5.40;99.90;;;3.76;89.36;102638.66;5017064;28;20055;-76
2023/04/19 01:23:47;;;;;;;7.63;1.67;;;5.40;99.90;;;3.80;88.92;102636.94;4984276;28;20045;-77
2023/04/19 01:26:13;;;;;;;3.40;1.40;;;5.40;99.90;;;3.82;88.59;102632.63;5015490;28;20045;-76
2023/04/19 01:28:39;;;;;;;5.72;1.63;;;5.40;99.90;;;3.80;88.92;102627.41;5007157;28;20033;-76
2023/04/19 01:31:05;;;;;;;3.90;1.27;;;5.40;99.90;;;3.74;88.66;102635.16;5007397;28;20434;-77
2023/04/19 01:33:40;;;;;;;2.65;1.13;;;5.30;99.90;;;3.75;88.48;102633.41;5001194;28;20053;-76
2023/04/19 01:36:07;;;;;;;3.70;1.67;;;5.30;99.90;;;3.70;89.00;102628.16;4989650;28;20418;-76
2023/04/19 01:38:33;;;;;;;7.25;1.27;;;5.30;99.90;;;3.66;88.83;102635.03;4992313;28;20080;-77
2023/04/19 01:41:02;;;;;;;4.72;1.45;;;5.30;99.90;;;3.65;89.09;102620.28;4983841;28;20486;-75
2023/04/19 01:43:28;;;;;;;2.97;1.20;;;5.30;99.90;;;3.72;89.06;102626.44;4965101;28;20033;-77
2023/04/19 01:45:54;;;;;;;5.13;1.13;;;5.30;99.90;;;3.74;88.80;102619.50;5002656;28;20036;-76
2023/04/19 01:48:19;;;;;;;7.25;1.38;;;5.30;99.90;;;3.75;88.67;102616.03;4980955;28;20460;-76
2023/04/19 01:50:45;;;;;;;3.10;1.27;;;5.30;99.90;;;3.75;88.27;102612.56;4996166;28;21392;-77
2023/04/19 01:53:11;;;;;;;2.30;0.95;;;5.30;99.90;;;3.72;88.01;102609.94;4994157;28;20113;-76
2023/04/19 01:55:37;;;;;;;3.33;0.90;;;5.30;99.90;;;3.74;87.21;102610.78;5000630;28;20053;-76
2023/04/19 01:58:06;;;;;;;4.95;1.25;;;5.30;99.90;;;3.81;86.63;102608.28;5002773;28;20033;-77
2023/04/19 02:00:31;;;;;;;2.03;0.70;;;5.40;99.90;;;3.82;85.97;102602.25;4998187;28;20037;-76
2023/04/19 02:02:57;;;;;;;3.47;0.98;;;5.40;99.90;;;3.86;85.83;102600.53;4988212;28;20132;-76
2023/04/19 02:05:23;;;;;;;4.30;1.17;;;5.40;99.90;;;3.87;85.13;102597.94;4954394;28;20042;-77
2023/04/19 02:07:49;;;;;;;3.45;0.98;;;5.40;99.90;;;3.87;84.53;102597.06;4998108;28;20106;-76
2023/04/19 02:10:15;;;;;;;14.23;1.80;;;5.40;99.90;;;3.91;84.77;102593.66;4991693;28;20495;-77
2023/04/19 02:12:41;;;;;;;6.82;1.10;;;5.40;99.90;;;3.87;84.18;102589.25;4974448;28;20021;-75
2023/04/19 02:15:10;;;;;;;6.78;1.23;;;5.40;99.90;;;3.84;84.40;102597.03;4979939;28;20033;-76
2023/04/19 02:17:39;;;;;;;2.95;1.00;;;5.40;99.90;;;3.86;83.91;102590.09;5023643;28;20053;-77
2023/04/19 02:20:07;;;;;;;4.60;1.20;;;5.50;99.90;;;3.89;83.77;102584.94;4993885;28;20037;-76
2023/04/19 02:22:33;;;;;;;2.05;0.75;;;5.40;99.90;;;3.89;83.40;102583.19;5019865;28;20695;-77
2023/04/19 02:24:59;;;;;;;4.28;0.75;;;5.50;99.90;;;3.92;83.53;102589.31;4995497;28;20075;-75
2023/04/19 02:27:25;;;;;;;2.83;0.90;;;5.50;99.90;;;3.89;83.29;102569.31;5011484;28;20093;-77
2023/04/19 02:29:54;;;;;;;2.63;1.00;;;5.50;99.90;;;3.90;83.54;102586.69;4971789;28;20040;-76
2023/04/19 02:32:19;;;;;;;2.17;0.82;;;5.40;99.90;;;3.85;83.28;102577.94;4991503;28;21455;-75
2023/04/19 02:34:45;;;;;;;4.35;1.60;;;5.50;99.90;;;3.89;83.68;102572.78;5014355;28;20029;-76
2023/04/19 02:37:11;;;;;;;4.60;0.73;;;5.40;99.90;;;3.87;83.64;102577.09;5008565;28;20026;-75
2023/04/19 02:39:37;;;;;;;3.92;1.08;;;5.40;99.90;;;3.85;84.01;102563.19;4991421;28;20097;-76
2023/04/19 02:42:10;;;;;;;3.58;0.77;;;5.40;99.90;;;3.79;84.00;102562.22;5000130;28;20639;-77
2023/04/19 02:44:36;;;;;;;2.80;1.17;;;5.40;99.90;;;3.78;83.93;102556.16;5012266;28;20042;-76
2023/04/19 02:47:02;;;;;;;1.77;0.60;;;5.40;99.90;;;3.75;84.05;102556.09;4975221;28;20449;-77
2023/04/19 02:49:35;;;;;;;1.48;0.70;;;5.40;99.90;;;3.75;84.06;102544.81;5010566;28;20040;-75
2023/04/19 02:52:01;;;;;;;3.00;1.00;;;5.40;99.90;;;3.76;84.13;102554.38;5002020;28;20037;-77
2023/04/19 02:54:27;;;;;;;4.45;0.60;;;5.30;99.90;;;3.71;84.40;102549.09;4994824;28;20052;-76
2023/04/19 02:56:53;;;;;;;2.33;0.68;;;5.30;99.90;;;3.76;84.69;102546.53;5006250;28;20034;-77
2023/04/19 02:59:18;;;;;;;2.45;0.98;;;5.30;99.90;;;3.75;84.15;102542.22;4996312;28;20124;-76
2023/04/19 03:01:44;;;;;;;4.15;0.80;;;5.30;99.90;;;3.81;84.53;102543.16;4992935;28;20132;-76
2023/04/19 03:04:10;;;;;;;3.95;0.90;;;5.40;99.90;;;3.85;84.39;102536.25;5010202;28;20567;-76
2023/04/19 03:06:43;;;;;;;3.00;0.68;;;5.40;99.90;;;3.88;83.98;102534.53;5017759;28;20060;-75
2023/04/19 03:09:09;;;;;;;2.92;0.90;;;5.40;99.90;;;3.90;83.55;102539.75;5007105;28;20449;-75
2023/04/19 03:11:35;;;;;;;2.38;0.80;;;5.40;99.90;;;3.89;83.50;102533.69;4981871;28;20034;-77
2023/04/19 03:14:01;;;;;;;5.03;0.90;;;5.50;99.90;;;3.92;83.44;102534.56;4997332;28;20048;-76
2023/04/19 03:16:29;;;;;;;2.05;0.75;;;5.50;99.90;;;3.90;83.06;102522.38;4990898;28;20025;-76
2023/04/19 03:18:54;;;;;;;2.40;0.60;;;5.50;99.90;;;3.90;82.63;102525.00;5002694;28;20084;-76
2023/04/19 03:21:20;;;;;;;4.10;0.80;;;5.50;99.90;;;3.95;82.72;102521.56;4980192;28;20045;-76
2023/04/19 03:23:46;;;;;;;4.05;0.73;;;5.50;99.90;;;3.93;82.53;102513.75;4993287;28;20047;-76
2023/04/19 03:26:12;;;;;;;7.22;1.05;;;5.50;99.90;;;3.94;82.50;102514.63;4990564;28;20640;-76
2023/04/19 03:28:38;;;;;;;3.65;0.88;;;5.50;99.90;;;3.96;82.36;102520.72;5000520;28;20041;-76
2023/04/19 03:31:03;;;;;;;5.90;1.15;;;5.60;99.90;;;3.98;82.48;102513.78;4990430;28;20044;-77
2023/04/19 03:33:29;;;;;;;5.82;0.73;;;5.50;99.90;;;3.99;82.31;102516.38;5010087;28;20490;-76
2023/04/19 03:36:03;;;;;;;3.25;0.85;;;5.60;99.90;;;3.95;82.62;102508.53;4969721;28;20139;-77
2023/04/19 03:38:29;;;;;;;2.25;0.70;;;5.50;99.90;;;3.93;82.56;102505.03;5003418;28;20042;-76
2023/04/19 03:40:56;;;;;;;3.25;0.82;;;5.50;99.90;;;3.96;82.36;102507.69;4992955;28;20041;-77
2023/04/19 03:43:25;;;;;;;7.80;0.70;;;5.60;99.90;;;3.98;82.52;102496.41;5013172;28;20417;-77
2023/04/19 03:45:53;;;;;;;5.05;1.00;;;5.60;99.90;;;3.97;82.70;102499.00;5014964;28;20068;-77
2023/04/19 03:48:19;;;;;;;3.22;0.88;;;5.60;99.90;;;3.96;82.78;102492.03;5008332;28;20477;-76
2023/04/19 03:50:44;;;;;;;7.70;0.80;;;5.60;99.90;;;3.97;83.05;102494.66;5011983;28;20039;-77
2023/04/19 03:53:10;;;;;;;2.60;0.82;;;5.50;99.90;;;3.98;83.15;102500.75;4996101;28;20168;-76
2023/04/19 03:55:36;;;;;;;4.50;0.68;;;5.60;99.90;;;3.95;82.79;102491.16;5033329;28;20036;-76
2023/04/19 03:58:02;;;;;;;2.42;0.63;;;5.50;99.90;;;3.96;82.89;102490.31;5013503;28;20136;-77
2023/04/19 04:00:30;;;;;;;3.60;0.75;;;5.50;99.90;;;3.98;83.24;102492.94;4987769;28;20044;-77
2023/04/19 04:02:56;;;;;;;6.15;0.93;;;5.50;99.90;;;3.98;82.98;102490.31;4987662;28;20045;-76
2023/04/19 04:05:21;;;;;;;5.07;0.95;;;5.60;99.90;;;3.99;83.10;102489.44;5005782;28;20490;-76
2023/04/19 04:07:47;;;;;;;5.68;0.93;;;5.60;99.90;;;4.01;83.03;102487.72;5006412;28;20029;-76
2023/04/19 04:10:13;;;;;;;4.30;0.80;;;5.60;99.90;;;4.00;83.41;102486.88;4999807;28;20124;-77
2023/04/19 04:12:39;;;;;;;2.55;0.75;;;5.60;99.90;;;4.02;83.20;102484.28;4995594;28;20097;-76
2023/04/19 04:15:05;;;;;;;9.57;0.90;;;5.60;99.90;;;4.00;83.54;102480.78;5011937;28;20112;-77
2023/04/19 04:17:31;;;;;;;5.40;0.90;;;5.60;99.90;;;4.01;83.70;102488.59;5003434;28;20034;-76
2023/04/19 04:20:00;;;;;;;9.63;0.90;;;5.60;99.90;;;3.98;83.77;102487.72;5000261;28;20691;-76
2023/04/19 04:22:26;;;;;;;8.40;0.73;;;5.60;99.90;;;4.07;83.93;102479.97;5005394;28;20049;-76
2023/04/19 04:24:52;;;;;;;3.78;0.90;;;5.60;99.90;;;4.02;83.77;102482.53;5000229;28;20041;-77
2023/04/19 04:27:20;;;;;;;4.70;1.00;;;5.60;99.90;;;4.12;83.88;102478.25;5004561;28;20037;-75
2023/04/19 04:29:46;;;;;;;6.97;1.35;;;5.60;99.90;;;4.13;83.65;102485.25;5019445;28;20033;-77
2023/04/19 04:32:13;;;;;;;4.50;0.82;;;5.70;99.90;;;4.19;83.71;102474.88;5013733;28;21378;-76
2023/04/19 04:34:41;;;;;;;4.60;0.90;;;5.70;99.90;;;4.25;83.43;102480.09;4980168;28;20029;-76
2023/04/19 04:37:07;;;;;;;9.27;1.42;;;5.80;99.90;;;4.29;82.82;102478.41;5010788;28;20103;-76
2023/04/19 04:39:37;;;;;;;5.47;0.98;;;5.80;99.90;;;4.28;83.28;102472.31;4986468;28;20122;-77
2023/04/19 04:42:09;;;;;;;5.00;1.23;;;5.90;99.90;;;4.39;83.00;102479.34;4999348;28;20044;-76
2023/04/19 04:44:36;;;;;;;0.90;0.40;;;6.00;99.90;;;4.79;82.06;102471.75;5002234;28;20042;-76
2023/04/19 04:47:02;;;;;;;7.15;1.13;;;7.00;99.90;;;7.30;77.56;102505.03;5004390;28;20125;-76
2023/04/19 04:49:29;;;;;;;6.07;1.17;;;8.30;99.90;;;9.32;69.08;102505.94;4981761;28;20033;-76
2023/04/19 04:52:00;;;;;;;5.35;0.90;;;9.40;99.90;;;10.85;63.37;102510.53;4983918;28;20541;-76
2023/04/19 04:54:26;;;;;;;2.42;0.77;;;10.00;99.90;;;10.68;60.28;102505.56;4992454;28;20033;-76
2023/04/19 04:56:51;;;;;;;4.45;1.02;;;10.40;99.90;;;11.30;59.47;102521.06;4976268;28;20628;-76
2023/04/19 04:59:17;;;;;;;3.97;0.80;;;10.80;99.90;;;11.83;57.50;102518.97;4990201;28;20040;-75
2023/04/19 05:01:43;;;;;;;4.63;0.80;;;11.30;99.90;;;12.79;56.02;102538.63;5023737;28;20032;-77
2023/04/19 05:04:09;;;;;;;4.97;0.82;;;11.60;99.90;;;13.50;54.61;102540.16;4997817;28;20045;-74
2023/04/19 05:06:44;;;;;;;1.73;0.50;;;12.10;99.90;;;12.99;52.19;102510.78;5000345;28;20040;-77
2023/04/19 05:09:10;;;;;;;5.05;1.05;;;12.30;99.90;;;14.16;52.10;102539.88;5006048;28;20050;-75
2023/04/19 05:11:36;;;;;;;1.85;0.63;;;12.20;99.90;;;13.48;52.04;102525.25;5010067;28;20484;-77
2023/04/19 05:14:02;;;;;;;4.07;1.00;;;12.30;99.90;;;14.23;51.04;102535.22;4988205;28;20037;-77
2023/04/19 05:16:33;;;;;;;6.45;1.27;;;12.70;99.90;;;15.32;49.76;102560.59;4991076;28;20486;-76
2023/04/19 05:18:59;;;;;;;4.60;1.00;;;13.30;99.90;;;16.56;47.26;102581.38;4992024;28;20662;-77
2023/04/19 05:21:25;;;;;;;6.72;1.00;;;13.60;99.90;;;16.78;46.30;102570.69;4986766;28;20041;-77
2023/04/19 05:23:54;;;;;;;6.78;1.08;;;14.00;99.90;;;17.14;44.94;102581.53;5002146;28;20041;-76
2023/04/19 05:26:23;;;;;;;2.97;1.00;;;13.80;99.90;;;16.13;45.51;102560.13;4982471;28;20113;-76
2023/04/19 05:28:49;;;;;;;7.05;1.52;;;13.90;99.90;;;16.98;45.34;102586.69;4984225;28;20046;-76
2023/04/19 05:31:15;;;;;;;2.67;1.00;;;13.50;99.90;;;15.82;46.14;102562.28;5006553;28;20030;-77
2023/04/19 05:33:41;;;;;;;2.95;0.80;;;13.30;99.90;;;16.05;46.61;102570.19;5003942;28;20072;-75
2023/04/19 05:36:07;;;;;;;4.50;0.80;;;13.30;99.90;;;16.11;46.49;102569.97;5036000;28;20038;-77
2023/04/19 05:38:33;;;;;;;6.85;0.82;;;13.40;99.90;;;16.51;45.66;102578.91;4986375;28;20091;-77
2023/04/19 05:40:59;;;;;;;4.32;0.95;;;13.20;99.90;;;16.13;46.00;102569.88;5010871;28;20038;-77
2023/04/19 05:43:25;;;;;;;4.60;1.15;;;13.00;99.90;;;15.62;45.82;102569.19;4988170;28;20041;-77
2023/04/19 05:45:50;;;;;;;12.15;1.10;;;13.10;99.90;;;16.67;45.32;102589.75;4996593;28;20041;-77
2023/04/19 05:48:16;;;;;;;2.67;0.93;;;13.30;99.90;;;15.87;45.30;102571.78;4961884;28;20045;-76
2023/04/19 05:50:42;;;;;;;3.80;1.20;;;13.90;99.90;;;17.62;43.40;102611.31;5014403;28;20033;-76
2023/04/19 05:53:08;;;;;;;5.25;1.00;;;14.10;99.90;;;17.45;42.83;102608.56;5019473;28;20124;-76
2023/04/19 05:55:33;;;;;;;2.42;0.93;;;14.70;99.90;;;18.11;41.82;102608.16;4993312;28;20049;-77
2023/04/19 05:57:59;;;;;;;2.38;1.25;;;14.70;99.90;;;15.51;44.41;102555.47;4984463;28;20049;-76
2023/04/19 06:00:27;;;;;;;7.53;1.33;;;14.30;99.90;;;17.63;43.49;102597.06;4966425;28;20486;-77
2023/04/19 06:02:55;;;;;;;9.55;1.77;;;14.00;99.90;;;16.52;43.60;102595.72;5016276;28;20026;-77
2023/04/19 06:05:21;;;;;;;2.13;0.80;;;13.50;99.90;;;15.71;45.18;102581.25;4999937;28;20090;-76
2023/04/19 06:07:47;;;;;;;5.53;0.80;;;14.10;99.90;;;17.37;43.42;102601.81;5014944;28;20113;-76
2023/04/19 06:10:13;;;;;;;3.03;0.70;;;14.20;99.90;;;16.50;43.17;102595.81;5000541;28;20025;-77
2023/04/19 06:12:38;;;;;;;3.63;0.85;;;13.80;99.90;;;13.31;47.32;102541.63;5003083;28;20050;-77
2023/04/19 06:15:05;;;;;;;3.85;1.00;;;12.90;99.90;;;13.27;50.59;102540.81;4994228;28;20648;-77
2023/04/19 06:17:31;;;;;;;3.28;1.00;;;12.90;99.90;;;14.89;48.52;102554.22;4996051;28;20056;-76
2023/04/19 06:19:57;;;;;;;2.80;0.88;;;13.10;99.90;;;14.54;47.10;102558.94;5009252;28;20041;-76
2023/04/19 06:22:25;;;;;;;3.58;1.00;;;12.50;99.90;;;11.54;50.83;102502.97;5009569;28;20041;-77
2023/04/19 06:24:51;;;;;;;2.92;0.82;;;11.70;99.90;;;10.53;54.90;102492.69;4983755;28;20057;-76
2023/04/19 06:27:17;;;;;;;5.65;1.17;;;11.30;99.90;;;10.69;56.25;102488.88;5023012;28;20371;-77
2023/04/19 06:29:42;;;;;;;3.63;0.85;;;11.20;99.90;;;11.03;55.78;102504.00;4980884;28;20128;-77
2023/04/19 06:32:10;;;;;;;6.00;1.15;;;11.00;99.90;;;9.71;57.13;102474.72;5022529;28;20034;-76
2023/04/19 06:34:36;;;;;;;3.25;0.98;;;10.60;99.90;;;9.40;59.79;102485.69;5004751;28;20129;-76
2023/04/19 06:37:04;;;;;;;3.65;1.30;;;10.30;99.90;;;9.53;59.86;102487.25;5011006;28;20141;-77
2023/04/19 06:39:30;;;;;;;6.38;1.38;;;10.40;99.90;;;10.61;58.08;102510.09;5001937;28;20037;-76
2023/04/19 06:41:56;;;;;;;5.32;1.20;;;10.80;99.90;;;11.88;54.16;102529.50;5009276;28;20036;-77
2023/04/19 06:44:22;;;;;;;7.32;1.15;;;11.40;99.90;;;13.30;52.51;102539.88;5001856;28;20048;-76
2023/04/19 06:46:48;;;;;;;3.10;1.00;;;12.50;99.90;;;14.92;49.43;102570.91;5005866;28;20029;-75
2023/04/19 06:49:14;;;;;;;10.23;1.10;;;14.00;99.90;;;16.58;46.17;102591.00;5020938;28;20034;-77
2023/04/19 06:51:40;;;;;;;5.55;1.20;;;14.50;99.90;;;15.90;46.27;102587.63;4992832;28;20056;-76
2023/04/19 06:54:08;;;;;;;5.70;1.30;;;14.60;99.90;;;14.98;46.50;102570.66;5000812;28;20500;-76
2023/04/19 06:56:45;;;;;;;2.58;1.08;;;15.20;99.90;;;16.33;46.29;102593.00;5009365;28;20040;-76
2023/04/19 06:59:16;;;;;;;4.75;1.13;;;16.00;99.90;;;17.28;44.75;102609.31;4985744;28;20049;-76
2023/04/19 07:01:43;;;;;;;6.90;1.25;;;15.50;98.50;;;15.37;46.44;102567.47;4993544;28;20430;-77
2023/04/19 07:04:09;;;;;;;4.22;0.90;;;15.40;97.90;;;15.17;45.84;102568.22;4964648;28;20038;-76
2023/04/19 07:06:38;;;;;;;11.07;1.17;;;15.20;97.80;;;14.40;46.37;102556.72;5008215;28;20044;-77
2023/04/19 07:09:06;;;;;;;5.30;1.20;;;14.60;99.00;;;13.90;47.94;102546.00;5012061;28;20049;-77
2023/04/19 07:11:32;;;;;;;2.78;0.80;;;14.50;99.80;;;14.22;48.33;102549.41;4991721;28;20072;-78
2023/04/19 07:14:01;;;;;;;8.88;1.38;;;14.20;99.20;;;13.68;48.77;102544.03;5010604;28;20037;-77
2023/04/19 07:16:28;;;;;;;5.68;1.45;;;14.40;99.70;;;13.96;48.89;102556.41;5010592;28;20044;-76
2023/04/19 07:18:56;;;;;;;4.80;1.23;;;14.30;99.60;;;13.95;49.11;102541.41;5014592;28;20035;-77
2023/04/19 07:21:25;;;;;;;5.05;1.30;;;14.80;99.50;;;14.92;48.43;102572.66;4996595;28;20025;-78
2023/04/19 07:23:51;;;;;;;3.88;0.70;;;14.90;98.70;;;14.33;47.94;102549.91;4999594;28;20762;-76
2023/04/19 07:26:16;;;;;;;7.63;1.38;;;14.90;99.20;;;13.90;48.24;102556.59;5002933;28;20092;-76
2023/04/19 07:28:42;;;;;;;8.35;1.08;;;14.10;99.10;;;13.39;50.17;102544.03;5005586;28;20034;-76
2023/04/19 07:31:15;;;;;;;7.35;1.35;;;14.20;98.90;;;13.48;49.57;102543.78;4996844;28;20025;-76
2023/04/19 07:33:42;;;;;;;5.95;1.00;;;14.60;98.90;;;13.83;49.08;102537.41;4969354;28;20028;-76
2023/04/19 07:36:08;;;;;;;5.70;1.40;;;15.10;99.40;;;14.85;48.55;102561.41;4999826;28;20117;-76
2023/04/19 07:38:34;;;;;;;3.92;1.13;;;15.90;98.50;;;15.34;46.80;102580.84;5005736;28;20487;-77
2023/04/19 07:41:05;;;;;;;5.30;1.35;;;15.60;96.80;;;14.52;46.64;102564.28;5001559;28;20037;-77
2023/04/19 07:43:31;;;;;;;4.10;1.10;;;15.50;96.70;;;14.21;47.26;102560.91;4955972;28;20037;-78
2023/04/19 07:45:57;;;;;;;6.85;1.50;;;15.20;97.10;;;13.90;48.38;102551.31;4983136;28;20071;-77
2023/04/19 07:48:23;;;;;;;2.97;1.10;;;15.00;97.80;;;13.52;49.05;102556.00;5012060;28;20037;-77
2023/04/19 07:50:49;;;;;;;5.70;1.35;;;14.70;97.00;;;13.30;48.45;102534.59;5001633;28;21280;-76
2023/04/19 07:53:15;;;;;;;3.28;1.45;;;14.50;97.40;;;13.01;48.68;102535.41;4994884;28;20056;-77
2023/04/19 07:55:41;;;;;;;5.90;1.25;;;14.40;98.10;;;13.12;49.71;102544.75;4990116;28;20033;-77
2023/04/19 07:58:09;;;;;;;4.30;1.23;;;14.10;98.50;;;12.75;50.04;102552.84;5012803;28;20096;-77
2023/04/19 08:00:36;;;;;;;9.55;1.55;;;14.60;98.30;;;13.57;49.41;102548.78;4985479;28;20529;-76
2023/04/19 08:03:03;;;;;;;3.22;1.10;;;14.60;97.90;;;13.29;49.04;102539.03;4995801;28;20725;-78
2023/04/19 08:05:30;;;;;;;3.88;1.05;;;14.60;97.70;;;13.06;49.30;102534.34;4980994;28;20093;-76
2023/04/19 08:08:00;;;;;;;6.03;1.65;;;15.10;98.90;;;14.36;48.97;102556.00;4998761;28;20029;-76
2023/04/19 08:10:30;;;;;;;3.95;1.38;;;15.40;97.90;;;14.27;48.18;102561.56;4983380;28;20119;-77
2023/04/19 08:12:55;;;;;;;6.95;1.75;;;15.80;96.40;;;14.90;46.71;102580.69;4986217;28;20048;-77
2023/04/19 08:15:26;;;;;;;4.97;1.30;;;16.00;96.20;;;14.88;46.36;102582.53;4996691;28;20029;-78
2023/04/19 08:17:56;;;;;;;5.93;1.67;;;15.90;95.50;;;14.48;46.50;102580.34;4981549;28;20044;-76
2023/04/19 08:20:22;;;;;;;5.85;1.40;;;15.90;95.60;;;14.71;46.19;102583.13;4986507;28;20063;-77
2023/04/19 08:22:48;;;;;;;3.63;1.40;;;15.90;95.60;;;14.31;45.96;102584.41;4990955;28;20041;-78
2023/04/19 08:25:16;;;;;;;22.83;2.10;;;15.60;95.30;;;14.09;46.62;102572.78;4980150;28;21506;-78
2023/04/19 08:27:45;;;;;;;3.78;1.48;;;15.40;95.40;;;13.99;46.65;102568.69;4964184;28;20033;-75
2023/04/19 08:30:12;;;;;;;13.70;1.85;;;15.10;96.50;;;13.84;48.02;102562.09;5014161;28;20120;-76
2023/04/19 08:32:38;;;;;;;6.57;1.42;;;15.20;97.00;;;13.67;47.96;102552.91;4985852;28;20029;-76
2023/04/19 08:35:10;;;;;;;5.60;1.17;;;15.10;96.90;;;13.81;48.31;102562.19;5003421;28;20081;-77
2023/04/19 08:37:36;;;;;;;5.38;1.65;;;14.90;96.00;;;13.40;47.39;102553.72;4988772;28;20053;-79
2023/04/19 08:40:07;;;;;;;5.80;1.67;;;14.30;97.00;;;12.67;49.38;102538.94;4984052;28;20111;-76
2023/04/19 08:42:33;;;;;;;6.43;1.83;;;14.20;95.10;;;12.75;47.95;102546.69;5032330;28;20484;-77
2023/04/19 08:45:07;;;;;;;7.78;1.83;;;14.30;97.20;;;13.19;48.00;102542.81;4968991;28;20580;-77
2023/04/19 08:47:36;;;;;;;4.35;1.80;;;14.10;96.90;;;12.73;48.15;102531.72;4998528;28;20041;-78
2023/04/19 08:50:07;;;;;;;7.80;1.73;;;14.60;98.20;;;12.87;49.48;102546.34;5017926;28;20128;-77
2023/04/19 08:52:36;;;;;;;7.68;1.80;;;13.70;97.40;;;12.67;49.06;102541.59;4997177;28;20025;-77
2023/04/19 08:55:12;;;;;;;7.82;1.55;;;13.40;97.00;;;12.18;49.27;102534.91;5018363;28;20086;-77
2023/04/19 08:57:38;;;;;;;46.65;5.18;;;13.10;97.80;;;11.83;49.98;102526.88;4991547;28;20559;-77
2023/04/19 09:00:10;;;;;;;27.95;5.18;;;12.80;98.00;;;11.44;50.71;102520.75;4993969;28;20038;-78
2023/04/19 09:02:55;;;;;;;3.53;1.42;;;12.50;99.80;;;10.95;53.01;102498.03;4997827;28;20042;-76
2023/04/19 09:05:24;;;;;;;7.00;2.08;;;12.20;99.80;;;10.81;53.28;102504.44;5013897;28;20042;-76
2023/04/19 09:07:55;;;;;;;11.50;2.88;;;11.90;99.00;;;10.51;52.43;102495.34;5014278;28;20037;-76
2023/04/19 09:10:25;;;;;;;8.50;2.03;;;11.80;99.00;;;10.34;52.67;102497.41;5008164;28;20421;-76
2023/04/19 09:13:02;;;;;;;30.42;5.25;;;11.80;99.90;;;10.56;52.93;102500.53;4989062;28;20049;-78
2023/04/19 09:15:40;;;;;;;26.02;3.10;;;11.60;99.80;;;10.21;53.70;102481.78;5033220;28;20045;-76
2023/04/19 09:18:13;;;;;;;16.85;3.20;;;11.60;99.90;;;10.27;53.64;102470.28;5022977;28;20133;-77
2023/04/19 09:20:46;;;;;;;16.80;3.10;;;11.80;99.90;;;10.66;54.82;102496.81;5010096;28;20046;-76
2023/04/19 09:23:24;;;;;;;14.00;2.22;;;11.80;99.90;;;10.36;54.70;102479.81;5000043;28;20057;-77
2023/04/19 09:25:59;;;;;;;13.55;2.72;;;11.70;99.90;;;10.43;54.99;102482.34;4968230;28;20037;-76
2023/04/19 09:28:30;;;;;;;4.93;1.58;;;11.60;99.90;;;10.11;53.69;102474.97;5017297;28;20041;-77
2023/04/19 09:31:12;;;;;;;11.00;2.38;;;11.60;99.90;;;10.36;55.06;102488.59;5012613;28;20495;-76
2023/04/19 09:33:43;;;;;;;15.25;2.78;;;11.90;99.90;;;10.79;54.84;102487.78;5006041;28;20043;-76
2023/04/19 09:36:12;;;;;;;14.13;2.88;;;11.80;99.90;;;10.46;54.27;102477.00;5001526;28;20054;-77
2023/04/19 09:38:50;;;;;;;9.32;2.15;;;11.70;99.90;;;10.18;54.34;102475.72;5024536;28;20104;-77
2023/04/19 09:41:20;;;;;;;13.02;2.35;;;11.80;99.90;;;10.53;55.51;102461.09;4996222;28;20057;-76
2023/04/19 09:43:47;;;;;;;12.70;2.70;;;11.70;99.90;;;10.43;54.39;102463.00;4991076;28;20506;-78
2023/04/19 09:46:35;;;;;;;77.88;9.95;;;11.70;99.90;;;10.82;55.04;102473.69;5012358;28;20099;-77
2023/04/19 09:49:25;;;;;;;8.38;1.92;;;11.80;99.90;;;10.72;53.47;102469.50;5005847;28;20041;-76
2023/04/19 09:51:56;;;;;;;20.40;3.50;;;12.00;99.90;;;11.05;53.51;102478.50;4995903;28;20132;-76
2023/04/19 09:54:29;;;;;;;6.45;1.65;;;12.00;99.20;;;10.76;51.99;102474.69;5004463;28;20030;-78
2023/04/19 09:57:01;;;;;;;5.28;1.88;;;12.10;99.40;;;11.03;51.79;102483.78;4994824;28;20532;-77
2023/04/19 09:59:31;;;;;;;10.70;2.05;;;12.10;98.80;;;10.87;51.20;102461.31;5004889;28;20091;-75
2023/04/19 10:02:00;;;;;;;7.10;1.90;;;12.00;99.90;;;10.80;53.85;102468.47;4988538;28;20103;-76
2023/04/19 10:04:29;;;;;;;8.38;1.83;;;11.90;99.40;;;10.42;52.78;102462.13;5001193;28;20378;-77
2023/04/19 10:06:58;;;;;;;13.32;1.95;;;11.80;99.90;;;10.74;55.41;102454.53;5002448;28;20129;-77
2023/04/19 10:09:27;;;;;;;8.82;2.20;;;12.10;99.40;;;11.22;52.61;102473.72;4977720;28;20036;-77
2023/04/19 10:11:57;;;;;;;7.45;1.38;;;12.20;99.90;;;11.05;52.27;102481.13;4999754;28;20070;-78
2023/04/19 10:14:37;;;;;;;5.43;1.55;;;12.20;99.90;;;10.92;53.07;102461.19;4979265;28;20088;-76
2023/04/19 10:17:04;;;;;;;6.60;2.10;;;12.20;99.80;;;10.94;53.06;102468.16;4999196;28;20034;-78
2023/04/19 10:19:36;;;;;;;10.35;2.00;;;12.10;99.90;;;10.72;53.97;102457.19;4972493;28;20407;-76